sensor_id;sensor_type;location;lat;lon;timestamp;pressure;altitude;pressure_sealevel;temperature;humidity
36964;BME280;22878;48.616;35.326;2023-08-08T00:00:06;100408.81;;;20.52;100.00
36964;BME280;22878;48.616;35.326;2023-08-08T00:02:32;100407.19;;;20.46;100.00
36964;BME280;22878;48.616;35.326;2023-08-08T00:04:57;100409.95;;;20.41;100.00
36964;BME280;22878;48.616;35.326;2023-08-08T00:07:22;100414.37;;;20.34;100.00
36964;BME280;22878;48.616;35.326;2023-08-08T00:09:48;100417.17;;;20.26;100.00
36964;BME280;22878;48.616;35.326;2023-08-08T00:12:14;100417.33;;;20.20;100.00
36964;BME280;22878;48.616;35.326;2023-08-08T00:14:39;100423.08;;;20.17;100.00
36964;BME280;22878;48.616;35.326;2023-08-08T00:17:05;100429.13;;;20.16;100.00
36964;BME280;22878;48.616;35.326;2023-08-08T00:19:30;100426.52;;;20.14;100.00
36964;BME280;22878;48.616;35.326;2023-08-08T00:21:56;100424.64;;;20.14;100.00
36964;BME280;22878;48.616;35.326;2023-08-08T00:24:21;100425.84;;;20.12;100.00
36964;BME280;22878;48.616;35.326;2023-08-08T00:26:47;100423.97;;;20.11;100.00
36964;BME280;22878;48.616;35.326;2023-08-08T00:29:12;100423.30;;;20.10;100.00
36964;BME280;22878;48.616;35.326;2023-08-08T00:31:38;100426.88;;;20.07;100.00
36964;BME280;22878;48.616;35.326;2023-08-08T00:34:03;100422.97;;;20.04;100.00
36964;BME280;22878;48.616;35.326;2023-08-08T00:36:29;100430.20;;;20.00;100.00
36964;BME280;22878;48.616;35.326;2023-08-08T00:38:54;100433.25;;;19.99;100.00
36964;BME280;22878;48.616;35.326;2023-08-08T00:41:20;100433.67;;;19.94;100.00
36964;BME280;22878;48.616;35.326;2023-08-08T00:43:46;100433.70;;;19.91;100.00
36964;BME280;22878;48.616;35.326;2023-08-08T00:46:12;100433.48;;;19.87;100.00
36964;BME280;22878;48.616;35.326;2023-08-08T00:48:37;100437.95;;;19.84;100.00
36964;BME280;22878;48.616;35.326;2023-08-08T00:51:03;100440.98;;;19.80;100.00
36964;BME280;22878;48.616;35.326;2023-08-08T00:53:29;100438.17;;;19.77;100.00
36964;BME280;22878;48.616;35.326;2023-08-08T00:55:56;100437.08;;;19.75;100.00
36964;BME280;22878;48.616;35.326;2023-08-08T00:58:23;100437.50;;;19.73;100.00
36964;BME280;22878;48.616;35.326;2023-08-08T01:00:49;100437.82;;;19.74;100.00
36964;BME280;22878;48.616;35.326;2023-08-08T01:03:14;100439.69;;;19.73;100.00
36964;BME280;22878;48.616;35.326;2023-08-08T01:09:13;100443.11;;;19.70;100.00
36964;BME280;22878;48.616;35.326;2023-08-08T01:11:42;100441.09;;;19.66;100.00
36964;BME280;22878;48.616;35.326;2023-08-08T01:14:08;100442.55;;;19.65;100.00
36964;BME280;22878;48.616;35.326;2023-08-08T01:16:34;100445.97;;;19.65;100.00
36964;BME280;22878;48.616;35.326;2023-08-08T01:19:00;100445.62;;;19.66;100.00
36964;BME280;22878;48.616;35.326;2023-08-08T01:21:27;100445.10;;;19.67;100.00
36964;BME280;22878;48.616;35.326;2023-08-08T01:24:22;100447.52;;;19.65;100.00
36964;BME280;22878;48.616;35.326;2023-08-08T01:26:49;100447.11;;;19.63;100.00
36964;BME280;22878;48.616;35.326;2023-08-08T01:29:15;100446.13;;;19.64;100.00
36964;BME280;22878;48.616;35.326;2023-08-08T01:31:40;100442.44;;;19.65;100.00
36964;BME280;22878;48.616;35.326;2023-08-08T01:34:06;100447.02;;;19.66;100.00
36964;BME280;22878;48.616;35.326;2023-08-08T01:36:48;100452.44;;;19.67;100.00
36964;BME280;22878;48.616;35.326;2023-08-08T01:39:17;100452.64;;;19.66;100.00
36964;BME280;22878;48.616;35.326;2023-08-08T01:41:47;100454.52;;;19.65;100.00
36964;BME280;22878;48.616;35.326;2023-08-08T01:44:13;100452.61;;;19.62;100.00
36964;BME280;22878;48.616;35.326;2023-08-08T01:46:39;100459.44;;;19.60;100.00
36964;BME280;22878;48.616;35.326;2023-08-08T01:49:05;100462.68;;;19.59;100.00
36964;BME280;22878;48.616;35.326;2023-08-08T01:51:31;100467.71;;;19.58;100.00
36964;BME280;22878;48.616;35.326;2023-08-08T01:53:56;100471.15;;;19.58;100.00
36964;BME280;22878;48.616;35.326;2023-08-08T01:56:22;100472.51;;;19.56;100.00
36964;BME280;22878;48.616;35.326;2023-08-08T01:58:47;100475.64;;;19.55;100.00
36964;BME280;22878;48.616;35.326;2023-08-08T02:01:13;100482.12;;;19.53;100.00
36964;BME280;22878;48.616;35.326;2023-08-08T02:03:38;100483.23;;;19.50;100.00
36964;BME280;22878;48.616;35.326;2023-08-08T02:06:04;100487.39;;;19.49;100.00
36964;BME280;22878;48.616;35.326;2023-08-08T02:08:29;100489.77;;;19.44;100.00
36964;BME280;22878;48.616;35.326;2023-08-08T02:10:55;100491.35;;;19.39;100.00
36964;BME280;22878;48.616;35.326;2023-08-08T02:13:20;100493.48;;;19.34;100.00
36964;BME280;22878;48.616;35.326;2023-08-08T02:15:46;100496.47;;;19.33;100.00
36964;BME280;22878;48.616;35.326;2023-08-08T02:18:11;100497.08;;;19.32;100.00
36964;BME280;22878;48.616;35.326;2023-08-08T02:20:37;100500.53;;;19.28;100.00
36964;BME280;22878;48.616;35.326;2023-08-08T02:23:02;100502.81;;;19.29;100.00
36964;BME280;22878;48.616;35.326;2023-08-08T02:25:28;100505.71;;;19.29;100.00
36964;BME280;22878;48.616;35.326;2023-08-08T02:27:56;100508.88;;;19.28;100.00
36964;BME280;22878;48.616;35.326;2023-08-08T02:30:21;100512.89;;;19.27;100.00
36964;BME280;22878;48.616;35.326;2023-08-08T02:32:47;100511.83;;;19.27;100.00
36964;BME280;22878;48.616;35.326;2023-08-08T02:35:12;100513.79;;;19.29;100.00
36964;BME280;22878;48.616;35.326;2023-08-08T02:37:38;100513.58;;;19.30;100.00
36964;BME280;22878;48.616;35.326;2023-08-08T02:40:05;100516.96;;;19.29;100.00
36964;BME280;22878;48.616;35.326;2023-08-08T02:42:30;100517.65;;;19.30;100.00
36964;BME280;22878;48.616;35.326;2023-08-08T02:44:56;100519.95;;;19.33;100.00
36964;BME280;22878;48.616;35.326;2023-08-08T02:47:21;100522.86;;;19.37;100.00
36964;BME280;22878;48.616;35.326;2023-08-08T02:49:47;100524.89;;;19.40;100.00
36964;BME280;22878;48.616;35.326;2023-08-08T02:52:12;100525.30;;;19.46;100.00
36964;BME280;22878;48.616;35.326;2023-08-08T02:54:38;100528.48;;;19.52;100.00
36964;BME280;22878;48.616;35.326;2023-08-08T02:57:04;100528.36;;;19.57;100.00
36964;BME280;22878;48.616;35.326;2023-08-08T02:59:29;100529.68;;;19.63;100.00
36964;BME280;22878;48.616;35.326;2023-08-08T03:01:55;100529.61;;;19.68;100.00
36964;BME280;22878;48.616;35.326;2023-08-08T03:04:20;100530.48;;;19.72;100.00
36964;BME280;22878;48.616;35.326;2023-08-08T03:06:45;100528.73;;;19.75;100.00
36964;BME280;22878;48.616;35.326;2023-08-08T03:09:11;100532.88;;;19.84;100.00
36964;BME280;22878;48.616;35.326;2023-08-08T03:11:36;100534.91;;;19.93;100.00
36964;BME280;22878;48.616;35.326;2023-08-08T03:14:02;100534.01;;;20.03;100.00
36964;BME280;22878;48.616;35.326;2023-08-08T03:16:28;100535.72;;;20.17;100.00
36964;BME280;22878;48.616;35.326;2023-08-08T03:18:54;100534.63;;;20.28;100.00
36964;BME280;22878;48.616;35.326;2023-08-08T03:21:20;100534.11;;;20.38;100.00
36964;BME280;22878;48.616;35.326;2023-08-08T03:23:45;100534.89;;;20.46;100.00
36964;BME280;22878;48.616;35.326;2023-08-08T03:26:11;100541.83;;;20.58;100.00
36964;BME280;22878;48.616;35.326;2023-08-08T03:28:36;100537.02;;;20.70;100.00
36964;BME280;22878;48.616;35.326;2023-08-08T03:31:02;100535.17;;;20.79;100.00
36964;BME280;22878;48.616;35.326;2023-08-08T03:33:28;100535.77;;;20.92;100.00
36964;BME280;22878;48.616;35.326;2023-08-08T03:35:54;100535.93;;;21.04;100.00
36964;BME280;22878;48.616;35.326;2023-08-08T03:38:19;100538.30;;;21.17;100.00
36964;BME280;22878;48.616;35.326;2023-08-08T03:40:45;100535.30;;;21.30;100.00
36964;BME280;22878;48.616;35.326;2023-08-08T03:43:10;100544.05;;;21.50;100.00
36964;BME280;22878;48.616;35.326;2023-08-08T03:45:35;100541.39;;;21.73;100.00
36964;BME280;22878;48.616;35.326;2023-08-08T03:48:01;100539.60;;;22.11;100.00
36964;BME280;22878;48.616;35.326;2023-08-08T03:50:27;100538.35;;;22.79;100.00
36964;BME280;22878;48.616;35.326;2023-08-08T03:52:52;100536.67;;;23.65;100.00
36964;BME280;22878;48.616;35.326;2023-08-08T03:55:18;100538.16;;;24.53;100.00
36964;BME280;22878;48.616;35.326;2023-08-08T03:57:43;100539.41;;;25.29;100.00
36964;BME280;22878;48.616;35.326;2023-08-08T04:00:09;100547.80;;;26.03;100.00
36964;BME280;22878;48.616;35.326;2023-08-08T04:02:36;100548.10;;;26.79;100.00
36964;BME280;22878;48.616;35.326;2023-08-08T04:05:02;100552.55;;;27.51;100.00
36964;BME280;22878;48.616;35.326;2023-08-08T04:07:28;100551.02;;;28.08;100.00
36964;BME280;22878;48.616;35.326;2023-08-08T04:09:53;100560.41;;;28.61;100.00
36964;BME280;22878;48.616;35.326;2023-08-08T04:12:19;100564.34;;;29.20;100.00
36964;BME280;22878;48.616;35.326;2023-08-08T04:14:44;100564.44;;;29.70;98.04
36964;BME280;22878;48.616;35.326;2023-08-08T04:17:09;100561.58;;;30.28;94.55
36964;BME280;22878;48.616;35.326;2023-08-08T04:19:35;100566.79;;;30.71;88.46
36964;BME280;22878;48.616;35.326;2023-08-08T04:22:00;100567.89;;;31.05;86.09
36964;BME280;22878;48.616;35.326;2023-08-08T04:24:26;100571.80;;;31.45;82.22
36964;BME280;22878;48.616;35.326;2023-08-08T04:26:51;100577.79;;;31.96;80.57
36964;BME280;22878;48.616;35.326;2023-08-08T04:29:17;100578.53;;;32.44;74.52
36964;BME280;22878;48.616;35.326;2023-08-08T04:31:42;100584.71;;;32.62;72.78
36964;BME280;22878;48.616;35.326;2023-08-08T04:34:08;100585.63;;;32.93;69.88
36964;BME280;22878;48.616;35.326;2023-08-08T04:36:33;100584.84;;;33.25;68.13
36964;BME280;22878;48.616;35.326;2023-08-08T04:38:59;100592.08;;;33.51;65.17
36964;BME280;22878;48.616;35.326;2023-08-08T04:41:24;100593.98;;;33.78;62.54
36964;BME280;22878;48.616;35.326;2023-08-08T04:43:50;100597.98;;;34.09;60.76
36964;BME280;22878;48.616;35.326;2023-08-08T04:46:15;100605.80;;;34.37;59.14
36964;BME280;22878;48.616;35.326;2023-08-08T04:48:41;100608.06;;;34.87;57.56
36964;BME280;22878;48.616;35.326;2023-08-08T04:51:08;100608.98;;;35.22;53.91
36964;BME280;22878;48.616;35.326;2023-08-08T04:53:34;100610.38;;;35.11;52.93
36964;BME280;22878;48.616;35.326;2023-08-08T04:55:59;100607.55;;;35.38;53.61
36964;BME280;22878;48.616;35.326;2023-08-08T04:58:25;100612.65;;;35.96;52.04
36964;BME280;22878;48.616;35.326;2023-08-08T05:00:50;100613.34;;;36.36;50.77
36964;BME280;22878;48.616;35.326;2023-08-08T05:03:17;100617.02;;;36.65;49.22
36964;BME280;22878;48.616;35.326;2023-08-08T05:05:42;100619.54;;;37.04;48.60
36964;BME280;22878;48.616;35.326;2023-08-08T05:08:11;100618.74;;;37.37;46.48
36964;BME280;22878;48.616;35.326;2023-08-08T05:10:36;100621.70;;;37.64;45.65
36964;BME280;22878;48.616;35.326;2023-08-08T05:13:02;100622.89;;;37.81;44.95
36964;BME280;22878;48.616;35.326;2023-08-08T05:15:28;100624.98;;;38.29;44.24
36964;BME280;22878;48.616;35.326;2023-08-08T05:17:54;100629.65;;;38.59;42.27
36964;BME280;22878;48.616;35.326;2023-08-08T05:20:20;100625.94;;;38.48;41.88
36964;BME280;22878;48.616;35.326;2023-08-08T05:22:46;100628.18;;;38.67;41.90
36964;BME280;22878;48.616;35.326;2023-08-08T05:25:12;100630.45;;;38.92;40.71
36964;BME280;22878;48.616;35.326;2023-08-08T05:27:38;100632.80;;;39.03;39.95
36964;BME280;22878;48.616;35.326;2023-08-08T05:30:04;100629.69;;;39.07;39.74
36964;BME280;22878;48.616;35.326;2023-08-08T05:32:30;100632.70;;;39.19;39.25
36964;BME280;22878;48.616;35.326;2023-08-08T05:34:56;100631.50;;;39.49;39.06
36964;BME280;22878;48.616;35.326;2023-08-08T05:37:23;100626.63;;;39.87;38.72
36964;BME280;22878;48.616;35.326;2023-08-08T05:39:48;100621.67;;;40.38;37.92
36964;BME280;22878;48.616;35.326;2023-08-08T05:42:14;100626.69;;;40.59;37.42
36964;BME280;22878;48.616;35.326;2023-08-08T05:44:39;100627.09;;;40.90;37.17
36964;BME280;22878;48.616;35.326;2023-08-08T05:47:07;100630.59;;;41.05;36.09
36964;BME280;22878;48.616;35.326;2023-08-08T05:49:32;100637.29;;;41.24;36.07
36964;BME280;22878;48.616;35.326;2023-08-08T05:51:58;100635.27;;;41.83;34.97
36964;BME280;22878;48.616;35.326;2023-08-08T05:54:23;100629.23;;;41.58;33.73
36964;BME280;22878;48.616;35.326;2023-08-08T05:56:49;100630.08;;;40.86;34.66
36964;BME280;22878;48.616;35.326;2023-08-08T05:59:14;100626.92;;;41.14;35.26
36964;BME280;22878;48.616;35.326;2023-08-08T06:01:40;100629.04;;;41.64;34.31
36964;BME280;22878;48.616;35.326;2023-08-08T06:04:05;100627.85;;;42.00;33.77
36964;BME280;22878;48.616;35.326;2023-08-08T06:06:31;100628.91;;;42.25;33.22
36964;BME280;22878;48.616;35.326;2023-08-08T06:08:56;100627.16;;;42.59;32.70
36964;BME280;22878;48.616;35.326;2023-08-08T06:11:22;100625.52;;;42.71;32.32
36964;BME280;22878;48.616;35.326;2023-08-08T06:13:48;100626.11;;;42.86;32.28
36964;BME280;22878;48.616;35.326;2023-08-08T06:16:14;100626.14;;;43.10;31.55
36964;BME280;22878;48.616;35.326;2023-08-08T06:18:41;100628.86;;;42.95;31.58
36964;BME280;22878;48.616;35.326;2023-08-08T06:21:06;100632.91;;;42.88;31.12
36964;BME280;22878;48.616;35.326;2023-08-08T06:23:32;100632.80;;;42.95;31.17
36964;BME280;22878;48.616;35.326;2023-08-08T06:25:58;100632.25;;;42.97;30.65
36964;BME280;22878;48.616;35.326;2023-08-08T06:28:23;100631.50;;;43.00;31.13
36964;BME280;22878;48.616;35.326;2023-08-08T06:30:49;100629.30;;;43.56;30.55
36964;BME280;22878;48.616;35.326;2023-08-08T06:33:14;100628.17;;;43.68;30.17
36964;BME280;22878;48.616;35.326;2023-08-08T06:35:41;100627.35;;;44.18;29.90
36964;BME280;22878;48.616;35.326;2023-08-08T06:38:07;100632.42;;;44.61;29.20
36964;BME280;22878;48.616;35.326;2023-08-08T06:40:34;100625.01;;;44.98;29.00
36964;BME280;22878;48.616;35.326;2023-08-08T06:42:59;100619.73;;;45.17;28.45
36964;BME280;22878;48.616;35.326;2023-08-08T06:48:46;100627.45;;;44.82;28.05
36964;BME280;22878;48.616;35.326;2023-08-08T06:51:13;100622.05;;;45.03;28.18
36964;BME280;22878;48.616;35.326;2023-08-08T06:53:38;100620.20;;;45.36;27.74
36964;BME280;22878;48.616;35.326;2023-08-08T06:56:04;100617.05;;;45.30;27.88
36964;BME280;22878;48.616;35.326;2023-08-08T06:58:29;100614.84;;;45.59;27.83
36964;BME280;22878;48.616;35.326;2023-08-08T07:00:55;100618.39;;;45.79;27.34
36964;BME280;22878;48.616;35.326;2023-08-08T07:03:20;100616.41;;;46.02;26.50
36964;BME280;22878;48.616;35.326;2023-08-08T07:05:46;100613.72;;;45.96;26.51
36964;BME280;22878;48.616;35.326;2023-08-08T07:08:13;100612.44;;;45.87;26.65
36964;BME280;22878;48.616;35.326;2023-08-08T07:10:38;100613.45;;;45.77;26.53
36964;BME280;22878;48.616;35.326;2023-08-08T07:13:04;100612.70;;;45.40;26.09
36964;BME280;22878;48.616;35.326;2023-08-08T07:15:29;100611.63;;;45.22;26.21
36964;BME280;22878;48.616;35.326;2023-08-08T07:17:56;100612.14;;;45.36;26.05
36964;BME280;22878;48.616;35.326;2023-08-08T07:20:21;100616.42;;;45.41;26.13
36964;BME280;22878;48.616;35.326;2023-08-08T07:22:47;100606.77;;;45.14;25.73
36964;BME280;22878;48.616;35.326;2023-08-08T07:25:13;100614.23;;;44.68;26.72
36964;BME280;22878;48.616;35.326;2023-08-08T07:27:38;100611.48;;;45.20;26.52
36964;BME280;22878;48.616;35.326;2023-08-08T07:33:25;100610.27;;;45.80;25.84
36964;BME280;22878;48.616;35.326;2023-08-08T07:35:51;100611.10;;;45.99;25.79
36964;BME280;22878;48.616;35.326;2023-08-08T07:38:16;100614.66;;;45.79;25.74
36964;BME280;22878;48.616;35.326;2023-08-08T07:40:42;100616.85;;;46.07;25.49
36964;BME280;22878;48.616;35.326;2023-08-08T07:43:07;100618.77;;;46.38;24.75
36964;BME280;22878;48.616;35.326;2023-08-08T07:45:33;100619.43;;;45.23;24.74
36964;BME280;22878;48.616;35.326;2023-08-08T07:47:58;100620.64;;;44.65;25.99
36964;BME280;22878;48.616;35.326;2023-08-08T07:50:24;100614.79;;;44.92;25.90
36964;BME280;22878;48.616;35.326;2023-08-08T07:52:49;100619.60;;;45.19;24.81
36964;BME280;22878;48.616;35.326;2023-08-08T07:55:15;100620.36;;;44.40;25.09
36964;BME280;22878;48.616;35.326;2023-08-08T07:57:40;100621.99;;;43.99;25.79
36964;BME280;22878;48.616;35.326;2023-08-08T08:00:07;100618.73;;;43.55;25.95
36964;BME280;22878;48.616;35.326;2023-08-08T08:02:44;100618.11;;;43.75;26.09
36964;BME280;22878;48.616;35.326;2023-08-08T08:05:10;100609.81;;;43.52;26.46
36964;BME280;22878;48.616;35.326;2023-08-08T08:07:36;100612.92;;;43.88;25.99
36964;BME280;22878;48.616;35.326;2023-08-08T08:10:03;100616.92;;;43.98;26.12
36964;BME280;22878;48.616;35.326;2023-08-08T08:12:29;100619.89;;;44.30;25.90
36964;BME280;22878;48.616;35.326;2023-08-08T08:14:55;100610.23;;;44.74;25.49
36964;BME280;22878;48.616;35.326;2023-08-08T08:17:20;100607.27;;;45.21;25.27
36964;BME280;22878;48.616;35.326;2023-08-08T08:19:46;100607.35;;;45.36;25.10
36964;BME280;22878;48.616;35.326;2023-08-08T08:22:12;100611.46;;;45.26;24.91
36964;BME280;22878;48.616;35.326;2023-08-08T08:24:37;100611.91;;;44.93;25.00
36964;BME280;22878;48.616;35.326;2023-08-08T08:27:03;100611.80;;;44.80;25.21
36964;BME280;22878;48.616;35.326;2023-08-08T08:29:28;100608.30;;;44.95;25.35
36964;BME280;22878;48.616;35.326;2023-08-08T08:31:54;100601.89;;;45.04;24.98
36964;BME280;22878;48.616;35.326;2023-08-08T08:34:19;100602.02;;;45.17;24.96
36964;BME280;22878;48.616;35.326;2023-08-08T08:36:45;100603.00;;;45.29;24.94
36964;BME280;22878;48.616;35.326;2023-08-08T08:39:10;100599.73;;;45.29;24.56
36964;BME280;22878;48.616;35.326;2023-08-08T08:41:36;100602.98;;;45.13;24.35
36964;BME280;22878;48.616;35.326;2023-08-08T08:44:05;100605.45;;;44.40;24.48
36964;BME280;22878;48.616;35.326;2023-08-08T08:46:35;100607.16;;;43.90;24.93
36964;BME280;22878;48.616;35.326;2023-08-08T08:49:02;100609.70;;;43.95;25.07
36964;BME280;22878;48.616;35.326;2023-08-08T08:51:28;100603.55;;;44.36;25.01
36964;BME280;22878;48.616;35.326;2023-08-08T08:53:53;100602.75;;;44.61;24.66
36964;BME280;22878;48.616;35.326;2023-08-08T08:56:20;100597.74;;;44.76;23.97
36964;BME280;22878;48.616;35.326;2023-08-08T08:58:45;100598.02;;;44.61;24.21
36964;BME280;22878;48.616;35.326;2023-08-08T09:01:11;100594.38;;;44.45;24.41
36964;BME280;22878;48.616;35.326;2023-08-08T09:03:37;100591.34;;;44.58;24.37
36964;BME280;22878;48.616;35.326;2023-08-08T09:06:04;100583.89;;;44.74;24.33
36964;BME280;22878;48.616;35.326;2023-08-08T09:08:31;100590.20;;;44.43;24.45
36964;BME280;22878;48.616;35.326;2023-08-08T09:10:56;100584.66;;;44.17;24.97
36964;BME280;22878;48.616;35.326;2023-08-08T09:13:22;100581.86;;;44.32;24.96
36964;BME280;22878;48.616;35.326;2023-08-08T09:15:50;100580.55;;;44.31;24.12
36964;BME280;22878;48.616;35.326;2023-08-08T09:18:16;100581.20;;;43.93;24.69
36964;BME280;22878;48.616;35.326;2023-08-08T09:20:47;100584.46;;;43.79;25.17
36964;BME280;22878;48.616;35.326;2023-08-08T09:23:12;100584.88;;;43.51;25.15
36964;BME280;22878;48.616;35.326;2023-08-08T09:25:38;100586.97;;;42.96;25.45
36964;BME280;22878;48.616;35.326;2023-08-08T09:28:04;100584.77;;;42.22;25.74
36964;BME280;22878;48.616;35.326;2023-08-08T09:30:30;100590.89;;;41.60;27.13
36964;BME280;22878;48.616;35.326;2023-08-08T09:32:58;100585.81;;;41.95;27.34
36964;BME280;22878;48.616;35.326;2023-08-08T09:35:24;100586.52;;;41.89;26.80
36964;BME280;22878;48.616;35.326;2023-08-08T09:37:53;100585.91;;;41.62;26.91
36964;BME280;22878;48.616;35.326;2023-08-08T09:40:18;100574.17;;;41.41;27.18
36964;BME280;22878;48.616;35.326;2023-08-08T09:42:46;100570.23;;;41.05;27.50
36964;BME280;22878;48.616;35.326;2023-08-08T09:45:12;100570.75;;;40.89;27.67
36964;BME280;22878;48.616;35.326;2023-08-08T09:47:38;100562.94;;;40.75;27.22
36964;BME280;22878;48.616;35.326;2023-08-08T09:50:04;100565.80;;;40.02;28.13
36964;BME280;22878;48.616;35.326;2023-08-08T09:52:30;100563.64;;;39.62;28.83
36964;BME280;22878;48.616;35.326;2023-08-08T09:54:56;100565.95;;;39.41;29.17
36964;BME280;22878;48.616;35.326;2023-08-08T09:57:23;100566.96;;;39.38;29.61
36964;BME280;22878;48.616;35.326;2023-08-08T09:59:49;100569.57;;;39.39;29.62
36964;BME280;22878;48.616;35.326;2023-08-08T10:02:16;100566.06;;;39.13;29.79
36964;BME280;22878;48.616;35.326;2023-08-08T10:04:45;100563.88;;;38.96;30.12
36964;BME280;22878;48.616;35.326;2023-08-08T10:07:10;100566.05;;;38.65;29.87
36964;BME280;22878;48.616;35.326;2023-08-08T10:09:36;100566.95;;;38.27;30.10
36964;BME280;22878;48.616;35.326;2023-08-08T10:12:04;100573.02;;;37.93;30.75
36964;BME280;22878;48.616;35.326;2023-08-08T10:14:35;100571.25;;;37.66;30.57
36964;BME280;22878;48.616;35.326;2023-08-08T10:17:05;100568.84;;;37.17;29.98
36964;BME280;22878;48.616;35.326;2023-08-08T10:19:32;100569.70;;;36.97;31.45
36964;BME280;22878;48.616;35.326;2023-08-08T10:22:04;100568.55;;;36.92;31.57
36964;BME280;22878;48.616;35.326;2023-08-08T10:24:34;100569.89;;;36.80;31.90
36964;BME280;22878;48.616;35.326;2023-08-08T10:27:01;100566.97;;;37.00;31.23
36964;BME280;22878;48.616;35.326;2023-08-08T10:29:29;100565.95;;;37.12;31.29
36964;BME280;22878;48.616;35.326;2023-08-08T10:32:05;100569.20;;;37.10;30.92
36964;BME280;22878;48.616;35.326;2023-08-08T10:34:42;100573.32;;;36.73;30.31
36964;BME280;22878;48.616;35.326;2023-08-08T10:37:15;100567.45;;;36.64;31.75
36964;BME280;22878;48.616;35.326;2023-08-08T10:40:09;100573.14;;;36.67;31.91
36964;BME280;22878;48.616;35.326;2023-08-08T10:42:44;100568.23;;;36.73;31.47
36964;BME280;22878;48.616;35.326;2023-08-08T10:45:12;100570.62;;;36.80;31.96
36964;BME280;22878;48.616;35.326;2023-08-08T10:47:41;100571.16;;;36.87;31.87
36964;BME280;22878;48.616;35.326;2023-08-08T10:50:12;100566.58;;;36.85;31.10
36964;BME280;22878;48.616;35.326;2023-08-08T10:52:49;100567.84;;;36.91;31.30
36964;BME280;22878;48.616;35.326;2023-08-08T10:55:34;100567.73;;;36.99;30.90
36964;BME280;22878;48.616;35.326;2023-08-08T10:58:12;100564.29;;;36.99;30.94
36964;BME280;22878;48.616;35.326;2023-08-08T11:00:39;100562.36;;;36.96;31.48
36964;BME280;22878;48.616;35.326;2023-08-08T11:03:06;100565.47;;;37.15;31.23
36964;BME280;22878;48.616;35.326;2023-08-08T11:05:35;100566.35;;;37.12;31.00
36964;BME280;22878;48.616;35.326;2023-08-08T11:08:02;100569.05;;;36.85;31.46
36964;BME280;22878;48.616;35.326;2023-08-08T11:10:28;100563.84;;;36.47;31.28
36964;BME280;22878;48.616;35.326;2023-08-08T11:13:02;100558.73;;;36.46;31.81
36964;BME280;22878;48.616;35.326;2023-08-08T11:15:29;100561.14;;;36.59;31.56
36964;BME280;22878;48.616;35.326;2023-08-08T11:17:55;100559.92;;;36.43;31.58
36964;BME280;22878;48.616;35.326;2023-08-08T11:20:22;100558.09;;;35.90;31.44
36964;BME280;22878;48.616;35.326;2023-08-08T11:22:53;100553.12;;;35.86;32.72
36964;BME280;22878;48.616;35.326;2023-08-08T11:25:19;100548.02;;;35.86;32.22
36964;BME280;22878;48.616;35.326;2023-08-08T11:27:54;100547.39;;;35.59;33.16
36964;BME280;22878;48.616;35.326;2023-08-08T11:30:20;100543.91;;;35.75;33.31
36964;BME280;22878;48.616;35.326;2023-08-08T11:32:48;100543.96;;;35.98;33.26
36964;BME280;22878;48.616;35.326;2023-08-08T11:35:17;100548.17;;;36.22;32.73
36964;BME280;22878;48.616;35.326;2023-08-08T11:37:46;100542.00;;;36.37;32.59
36964;BME280;22878;48.616;35.326;2023-08-08T11:40:13;100540.27;;;36.20;32.07
36964;BME280;22878;48.616;35.326;2023-08-08T11:42:39;100536.70;;;36.28;32.26
36964;BME280;22878;48.616;35.326;2023-08-08T11:45:08;100536.60;;;36.16;31.99
36964;BME280;22878;48.616;35.326;2023-08-08T11:47:34;100545.42;;;35.79;32.37
36964;BME280;22878;48.616;35.326;2023-08-08T11:50:03;100541.55;;;35.31;32.33
36964;BME280;22878;48.616;35.326;2023-08-08T11:52:29;100542.90;;;35.23;33.09
36964;BME280;22878;48.616;35.326;2023-08-08T11:55:00;100543.91;;;34.95;32.65
36964;BME280;22878;48.616;35.326;2023-08-08T11:57:27;100540.95;;;34.27;33.25
36964;BME280;22878;48.616;35.326;2023-08-08T11:59:53;100544.33;;;33.87;35.25
36964;BME280;22878;48.616;35.326;2023-08-08T12:02:19;100546.39;;;34.28;35.29
36964;BME280;22878;48.616;35.326;2023-08-08T12:04:45;100544.66;;;34.65;34.06
36964;BME280;22878;48.616;35.326;2023-08-08T12:07:11;100539.49;;;34.73;33.32
36964;BME280;22878;48.616;35.326;2023-08-08T12:09:37;100541.80;;;34.39;33.54
36964;BME280;22878;48.616;35.326;2023-08-08T12:12:03;100542.15;;;34.13;34.62
36964;BME280;22878;48.616;35.326;2023-08-08T12:14:29;100547.04;;;34.32;34.73
36964;BME280;22878;48.616;35.326;2023-08-08T12:16:55;100549.77;;;34.05;35.03
36964;BME280;22878;48.616;35.326;2023-08-08T12:19:24;100547.60;;;34.10;35.74
36964;BME280;22878;48.616;35.326;2023-08-08T12:21:51;100542.93;;;34.54;35.34
36964;BME280;22878;48.616;35.326;2023-08-08T12:24:20;100540.42;;;34.89;34.63
36964;BME280;22878;48.616;35.326;2023-08-08T12:26:45;100539.80;;;35.09;34.13
36964;BME280;22878;48.616;35.326;2023-08-08T12:29:11;100540.90;;;35.35;34.08
36964;BME280;22878;48.616;35.326;2023-08-08T12:31:37;100537.05;;;35.39;33.82
36964;BME280;22878;48.616;35.326;2023-08-08T12:34:04;100534.88;;;35.12;33.92
36964;BME280;22878;48.616;35.326;2023-08-08T12:36:29;100534.77;;;34.87;34.04
36964;BME280;22878;48.616;35.326;2023-08-08T12:38:55;100534.88;;;34.67;35.08
36964;BME280;22878;48.616;35.326;2023-08-08T12:41:20;100537.86;;;34.51;34.80